createdAt,value
2022-08-07T00:01:12.548Z,14.45
2022-08-07T00:04:33.160Z,15.42
2022-08-07T00:07:44.113Z,15.89
2022-08-07T00:10:57.538Z,14.91
2022-08-07T00:14:05.919Z,13.63
2022-08-07T00:17:16.278Z,12.91
2022-08-07T00:20:29.928Z,12.38
2022-08-07T00:23:43.096Z,11.94
2022-08-07T00:27:06.380Z,11.58
2022-08-07T00:30:26.633Z,11.21
2022-08-07T00:33:35.183Z,10.88
2022-08-07T00:36:46.413Z,11.65
2022-08-07T00:39:55.058Z,13.10
2022-08-07T00:43:02.660Z,13.83
2022-08-07T00:46:10.683Z,14.14
2022-08-07T00:49:24.882Z,13.32
2022-08-07T00:52:47.382Z,12.34
2022-08-07T00:56:02.272Z,11.76
2022-08-07T00:59:11.718Z,11.32
2022-08-07T01:02:29.345Z,11.96
2022-08-07T01:05:53.643Z,13.34
2022-08-07T01:09:02.792Z,14.03
2022-08-07T01:12:30.091Z,14.48
2022-08-07T01:16:00.977Z,14.69
2022-08-07T01:19:18.525Z,13.82
2022-08-07T01:22:29.213Z,12.79
2022-08-07T01:25:55.835Z,12.08
2022-08-07T01:29:04.750Z,11.49
2022-08-07T01:32:13.754Z,12.04
2022-08-07T01:35:24.719Z,13.31
2022-08-07T01:38:45.665Z,13.69
2022-08-07T01:42:36.903Z,13.94
2022-08-07T03:04:29.538Z,13.82
2022-08-07T03:08:05.421Z,12.63
2022-08-07T03:11:12.442Z,11.70
2022-08-07T03:14:24.849Z,12.28
2022-08-07T03:17:36.275Z,13.34
2022-08-07T03:21:08.505Z,13.98
2022-08-07T03:24:27.288Z,14.41
2022-08-07T03:27:58.780Z,14.72
2022-08-07T03:31:24.697Z,15.01
2022-08-07T03:35:01.018Z,13.98
2022-08-07T03:38:29.831Z,12.69
2022-08-07T03:41:47.741Z,11.91
2022-08-07T03:45:01.386Z,12.67
2022-08-07T03:48:10.050Z,14.07
2022-08-07T03:51:20.773Z,15.35
2022-08-07T03:54:35.641Z,15.11
2022-08-07T03:58:32.941Z,14.05
2022-08-07T04:01:27.599Z,13.98
2022-08-07T04:04:38.663Z,14.27
2022-08-07T04:07:50.392Z,14.59
2022-08-07T04:12:20.741Z,14.93
2022-08-07T04:14:37.412Z,15.38
2022-08-07T04:18:58.033Z,15.90
2022-08-07T04:21:16.417Z,16.47
2022-08-07T04:24:30.715Z,16.87
2022-08-07T04:27:44.283Z,17.25
2022-08-07T04:30:58.668Z,17.69
2022-08-07T04:34:16.662Z,18.24
2022-08-07T04:37:25.182Z,18.82
2022-08-07T04:40:44.067Z,19.38
2022-08-07T04:44:13.260Z,19.86
2022-08-07T04:47:57.364Z,20.30
2022-08-07T04:51:14.125Z,20.59
2022-08-07T04:54:33.393Z,20.68
2022-08-07T04:58:10.523Z,20.76
2022-08-07T05:01:29.872Z,20.76
2022-08-07T05:04:58.261Z,20.93
2022-08-07T05:08:13.831Z,21.23
2022-08-07T05:11:56.863Z,21.46
2022-08-07T05:15:22.942Z,21.74
2022-08-07T05:18:41.510Z,22.05
2022-08-07T05:22:00.793Z,22.24
2022-08-07T05:25:26.114Z,22.44
2022-08-07T05:28:49.935Z,22.63
2022-08-07T05:32:00.818Z,22.77
2022-08-07T05:35:13.479Z,22.98
2022-08-07T05:39:00.058Z,23.11
2022-08-07T05:42:01.551Z,23.18
2022-08-07T05:45:26.169Z,23.27
2022-08-07T05:48:58.016Z,23.39
2022-08-07T05:52:08.539Z,23.26
2022-08-07T05:55:23.558Z,23.07
2022-08-07T05:58:52.830Z,22.94
2022-08-07T06:02:04.288Z,22.79
2022-08-07T06:05:16.116Z,22.64
2022-08-07T06:08:31.407Z,22.61
2022-08-07T06:11:40.727Z,22.60
2022-08-07T06:14:49.933Z,22.48
2022-08-07T06:17:56.180Z,22.30
2022-08-07T06:22:15.600Z,22.12
2022-08-07T06:24:52.708Z,21.88
2022-08-07T06:28:10.051Z,21.65
2022-08-07T06:31:38.322Z,21.51
2022-08-07T06:34:49.218Z,21.53
2022-08-07T06:37:58.345Z,21.50
2022-08-07T06:41:12.990Z,21.50
2022-08-07T06:44:24.137Z,21.46
2022-08-07T06:47:38.622Z,21.46
2022-08-07T06:50:49.310Z,21.54
2022-08-07T06:55:27.765Z,21.58
2022-08-07T06:57:39.560Z,21.72
2022-08-07T07:00:59.002Z,21.78
2022-08-07T07:04:27.973Z,21.69
2022-08-07T07:07:59.148Z,21.57
2022-08-07T07:11:13.078Z,21.55
2022-08-07T07:14:23.625Z,21.62
2022-08-07T07:17:39.390Z,21.75
2022-08-07T07:20:57.911Z,22.02
2022-08-07T07:24:12.554Z,22.15
2022-08-07T07:27:26.061Z,22.16
2022-08-07T07:30:53.146Z,22.39
2022-08-07T07:34:06.135Z,22.63
2022-08-07T07:37:44.512Z,22.79
2022-08-07T07:40:46.042Z,22.81
2022-08-07T07:44:16.960Z,22.77
2022-08-07T07:47:27.014Z,22.68
2022-08-07T07:50:38.859Z,22.63
2022-08-07T07:53:51.759Z,22.53
2022-08-07T07:57:02.985Z,22.46
2022-08-07T08:00:20.991Z,22.58
2022-08-07T08:04:10.797Z,22.88
2022-08-07T08:07:08.799Z,22.74
2022-08-07T08:10:38.015Z,22.57
2022-08-07T08:13:54.402Z,22.37
2022-08-07T08:17:55.413Z,22.08
2022-08-07T08:20:36.822Z,22.06
2022-08-07T08:24:03.823Z,22.31
2022-08-07T08:27:16.610Z,22.63
2022-08-07T08:30:25.907Z,22.92
2022-08-07T08:33:35.429Z,23.01
2022-08-07T08:36:49.365Z,23.16
2022-08-07T08:40:16.324Z,23.40
2022-08-07T08:43:42.937Z,23.27
2022-08-07T08:47:07.670Z,23.03
2022-08-07T08:50:35.131Z,22.48
2022-08-07T08:53:53.966Z,22.06
2022-08-07T08:57:06.372Z,21.78
2022-08-07T09:00:16.877Z,21.91
2022-08-07T09:03:48.109Z,22.26
2022-08-07T09:07:04.050Z,22.64
2022-08-07T09:10:18.873Z,22.50
2022-08-07T09:13:39.654Z,22.63
2022-08-07T09:16:58.961Z,23.07
2022-08-07T09:20:35.547Z,23.23
2022-08-07T09:24:53.623Z,23.65
2022-08-07T09:27:59.779Z,23.88
2022-08-07T09:31:17.412Z,24.12
2022-08-07T09:34:31.033Z,23.95
2022-08-07T09:37:53.653Z,24.01
2022-08-07T09:41:07.553Z,24.36
2022-08-07T09:44:52.187Z,24.67
2022-08-07T09:48:12.251Z,24.52
2022-08-07T09:52:10.066Z,24.44
2022-08-07T09:55:29.601Z,24.22
2022-08-07T09:59:13.719Z,24.26
2022-08-07T10:02:39.048Z,24.63
2022-08-07T10:06:25.875Z,24.77
2022-08-07T10:10:02.604Z,24.74
2022-08-07T10:13:55.266Z,25.07
2022-08-07T10:17:16.700Z,25.55
2022-08-07T10:20:36.521Z,26.20
2022-08-07T10:24:08.568Z,26.43
2022-08-07T10:27:46.017Z,26.38
2022-08-07T10:31:11.344Z,26.42
2022-08-07T10:34:39.973Z,26.96
2022-08-07T10:38:20.827Z,27.56
2022-08-07T10:41:46.268Z,27.68
2022-08-07T10:45:04.138Z,27.93
2022-08-07T10:48:34.945Z,28.34
2022-08-07T10:52:02.027Z,28.55
2022-08-07T10:55:37.238Z,28.78
2022-08-07T10:59:08.370Z,29.26
2022-08-07T11:02:32.752Z,28.94
2022-08-07T11:05:51.383Z,28.37
2022-08-07T11:09:04.526Z,27.62
2022-08-07T11:12:32.108Z,26.94
2022-08-07T11:15:42.530Z,26.20
2022-08-07T11:19:11.210Z,25.76
2022-08-07T11:22:37.246Z,25.55
2022-08-07T11:26:06.520Z,25.50
2022-08-07T11:29:42.131Z,25.84
2022-08-07T11:32:54.182Z,26.38
2022-08-07T11:36:25.218Z,27.07
2022-08-07T11:40:01.273Z,27.44
2022-08-07T11:43:16.741Z,28.06
2022-08-07T11:47:00.522Z,28.18
2022-08-07T11:50:32.226Z,28.23
2022-08-07T11:54:01.747Z,28.96
2022-08-07T11:57:59.886Z,29.07
2022-08-07T12:01:02.101Z,28.52
2022-08-07T12:04:26.989Z,27.77
2022-08-07T12:07:39.899Z,27.13
2022-08-07T12:11:08.393Z,26.77
2022-08-07T12:14:23.038Z,26.58
2022-08-07T12:17:58.926Z,26.42
2022-08-07T12:21:56.052Z,26.76
2022-08-07T12:26:00.929Z,27.32
2022-08-07T12:28:52.991Z,27.81
2022-08-07T12:32:12.400Z,28.35
2022-08-07T12:35:22.154Z,28.73
2022-08-07T12:38:42.554Z,29.20
2022-08-07T12:41:53.348Z,29.61
2022-08-07T12:45:04.299Z,29.44
2022-08-07T12:48:27.675Z,28.96
2022-08-07T12:51:51.490Z,28.78
2022-08-07T12:55:24.943Z,28.14
2022-08-07T12:58:56.900Z,27.80
2022-08-07T13:02:22.194Z,27.90
2022-08-07T13:06:02.521Z,27.94
2022-08-07T13:10:19.879Z,28.31
2022-08-07T13:12:58.216Z,28.54
2022-08-07T13:16:17.223Z,28.90
2022-08-07T13:19:46.261Z,29.03
2022-08-07T13:24:01.469Z,29.34
2022-08-07T13:26:46.173Z,29.85
2022-08-07T13:30:00.112Z,30.17
2022-08-07T13:34:30.139Z,30.21
2022-08-07T13:37:10.728Z,30.07
2022-08-07T13:40:36.667Z,30.13
2022-08-07T13:43:56.133Z,30.16
2022-08-07T13:47:09.565Z,30.24
2022-08-07T13:50:32.719Z,30.51
2022-08-07T13:54:00.635Z,30.41
2022-08-07T13:57:14.551Z,29.86
2022-08-07T14:00:54.021Z,29.45
2022-08-07T14:04:09.687Z,29.26
2022-08-07T14:07:17.839Z,29.04
2022-08-07T14:10:28.251Z,28.68
2022-08-07T14:13:45.135Z,28.30
2022-08-07T14:17:00.158Z,28.08
2022-08-07T14:22:39.682Z,28.17
2022-08-07T14:24:05.389Z,28.28
2022-08-07T14:27:16.190Z,28.11
2022-08-07T14:30:52.222Z,28.04
2022-08-07T14:34:01.280Z,27.81
2022-08-07T14:37:17.884Z,27.56
2022-08-07T14:40:35.077Z,27.15
2022-08-07T14:43:58.983Z,26.97
2022-08-07T14:47:16.545Z,26.82
2022-08-07T14:50:26.241Z,26.86
2022-08-07T14:54:03.626Z,26.82
2022-08-07T15:00:44.647Z,26.58
2022-08-07T15:04:05.696Z,26.77
2022-08-07T15:10:58.646Z,27.62
2022-08-07T15:14:10.839Z,28.32
2022-08-07T15:17:28.446Z,28.97
2022-08-07T15:20:55.059Z,29.73
2022-08-07T15:25:13.907Z,30.52
2022-08-07T15:27:39.426Z,30.58
2022-08-07T15:31:09.315Z,30.24
2022-08-07T15:34:17.617Z,29.79
2022-08-07T15:38:01.306Z,29.04
2022-08-07T15:41:23.019Z,28.11
2022-08-07T15:44:30.185Z,27.49
2022-08-07T15:48:00.245Z,27.32
2022-08-07T15:51:11.952Z,27.56
2022-08-07T15:54:21.065Z,27.81
2022-08-07T15:57:39.994Z,28.27
2022-08-07T16:00:56.416Z,28.85
2022-08-07T16:04:14.683Z,29.49
2022-08-07T16:08:30.889Z,29.58
2022-08-07T16:11:03.576Z,29.24
2022-08-07T16:14:19.137Z,29.23
2022-08-07T16:18:02.917Z,29.55
2022-08-07T16:22:04.290Z,30.14
2022-08-07T16:24:52.862Z,30.64
2022-08-07T16:29:18.426Z,31.22
2022-08-07T16:32:00.631Z,31.67
2022-08-07T16:35:59.412Z,31.37
2022-08-07T16:39:16.657Z,30.51
2022-08-07T16:42:44.759Z,29.73
2022-08-07T16:47:04.433Z,29.85
2022-08-07T16:50:20.404Z,30.51
2022-08-07T16:54:12.231Z,31.23
2022-08-07T16:58:02.095Z,32.00
2022-08-07T17:01:34.407Z,32.43
2022-08-07T17:04:58.583Z,32.26
2022-08-07T17:08:09.249Z,31.85
2022-08-07T17:11:28.300Z,31.51
2022-08-07T17:15:04.225Z,31.30
2022-08-07T17:18:19.619Z,31.15
2022-08-07T17:21:50.914Z,31.07
2022-08-07T17:25:15.228Z,30.99
2022-08-07T17:28:35.637Z,30.79
2022-08-07T17:32:02.641Z,30.67
2022-08-07T17:35:50.502Z,30.37
2022-08-07T17:38:56.182Z,30.28
2022-08-07T17:42:08.765Z,30.16
2022-08-07T17:45:27.952Z,29.99
2022-08-07T17:48:46.374Z,29.88
2022-08-07T17:52:01.134Z,29.75
2022-08-07T17:55:54.076Z,29.37
2022-08-07T17:58:51.854Z,28.72
2022-08-07T18:02:08.795Z,28.30
2022-08-07T18:06:03.456Z,28.01
2022-08-07T18:09:05.718Z,27.62
2022-08-07T18:12:28.724Z,27.22
2022-08-07T18:15:53.479Z,26.64
2022-08-07T18:21:09.615Z,26.17
2022-08-07T18:22:45.737Z,25.67
2022-08-07T18:26:15.241Z,25.15
2022-08-07T18:30:06.642Z,24.57
2022-08-07T18:33:38.994Z,23.89
2022-08-07T18:38:57.523Z,23.23
2022-08-07T18:41:08.178Z,22.61
2022-08-07T18:44:45.966Z,22.09
2022-08-07T18:48:09.468Z,21.72
2022-08-07T18:52:34.673Z,21.46
2022-08-07T18:55:40.494Z,21.21
2022-08-07T18:59:01.130Z,20.93
2022-08-07T19:02:36.090Z,20.71
2022-08-07T19:06:03.718Z,20.52
2022-08-07T19:09:56.293Z,20.34
2022-08-07T19:12:58.260Z,20.20
2022-08-07T19:17:01.360Z,20.03
2022-08-07T19:20:04.525Z,19.92
2022-08-07T19:23:19.458Z,19.79
2022-08-07T19:27:16.781Z,19.64
2022-08-07T19:30:57.947Z,19.55
2022-08-07T19:33:58.128Z,19.44
2022-08-07T19:37:17.565Z,19.33
2022-08-07T19:40:30.407Z,19.24
2022-08-07T19:43:52.137Z,19.07
2022-08-07T19:47:14.296Z,18.93
2022-08-07T19:50:43.940Z,18.72
2022-08-07T19:54:31.357Z,18.58
2022-08-07T19:58:02.926Z,18.34
2022-08-07T20:00:57.196Z,18.16
2022-08-07T20:04:08.357Z,17.96
2022-08-07T20:07:23.894Z,17.79
2022-08-07T20:10:54.693Z,17.62
2022-08-07T20:14:07.321Z,17.45
2022-08-07T20:17:22.653Z,17.27
2022-08-07T20:20:31.710Z,17.11
2022-08-07T20:23:48.400Z,16.95
2022-08-07T20:27:04.244Z,16.78
2022-08-07T20:30:22.535Z,16.62
2022-08-07T20:33:36.924Z,16.45
2022-08-07T20:36:51.677Z,16.30
2022-08-07T20:40:05.381Z,16.19
2022-08-07T20:43:32.743Z,16.01
2022-08-07T20:46:43.816Z,15.92
2022-08-07T20:50:01.711Z,15.79
2022-08-07T20:53:17.215Z,15.70
2022-08-07T20:56:41.021Z,15.63
2022-08-07T21:00:06.283Z,15.51
2022-08-07T21:03:25.601Z,15.45
2022-08-07T21:06:35.456Z,15.38
2022-08-07T21:09:52.934Z,15.31
2022-08-07T21:13:15.478Z,15.24
2022-08-07T21:16:29.279Z,15.14
2022-08-07T21:19:51.730Z,15.00
2022-08-07T21:23:15.370Z,14.93
2022-08-07T21:26:42.912Z,14.86
2022-08-07T21:30:02.694Z,14.78
2022-08-07T21:33:21.692Z,14.70
2022-08-07T21:36:37.486Z,14.59
2022-08-07T21:39:56.538Z,14.48
2022-08-07T21:43:06.549Z,14.39
2022-08-07T21:46:25.210Z,14.39
2022-08-07T21:50:02.588Z,14.34
2022-08-07T21:53:17.582Z,14.27
2022-08-07T21:56:39.627Z,14.25
2022-08-07T22:00:03.972Z,14.20
2022-08-07T22:03:18.857Z,14.18
2022-08-07T22:06:56.615Z,14.17
2022-08-07T22:10:07.455Z,14.14
2022-08-07T22:13:24.262Z,14.14
2022-08-07T22:16:55.910Z,14.10
2022-08-07T22:20:22.617Z,14.05
2022-08-07T22:23:40.218Z,13.98
2022-08-07T22:27:00.201Z,13.94
2022-08-07T22:30:17.000Z,13.92
2022-08-07T22:33:53.117Z,13.85
2022-08-07T22:37:12.407Z,13.79
2022-08-07T22:40:28.087Z,13.73
2022-08-07T22:43:42.375Z,13.72
2022-08-07T22:47:16.846Z,13.66
2022-08-07T22:50:54.911Z,13.65
2022-08-07T22:54:16.226Z,14.47
2022-08-07T22:57:47.002Z,16.35
2022-08-07T23:01:15.464Z,16.42
2022-08-07T23:04:58.204Z,15.70
2022-08-07T23:08:46.180Z,15.19
2022-08-07T23:12:32.689Z,14.89
2022-08-07T23:16:05.433Z,14.66
2022-08-07T23:19:51.256Z,14.51
2022-08-07T23:24:05.888Z,14.41
2022-08-07T23:28:21.879Z,14.39
2022-08-07T23:32:49.146Z,14.35
2022-08-07T23:35:16.611Z,14.27
2022-08-07T23:38:54.564Z,14.14
2022-08-07T23:42:31.748Z,14.05
2022-08-07T23:46:03.795Z,13.93
2022-08-07T23:49:49.975Z,13.82
2022-08-07T23:53:16.698Z,13.67
2022-08-07T23:56:35.144Z,13.52
